Latest Weather Observations for Gove Airport

IDD60801

Issued at 10:31 am CST Thursday 21 November 2019 (issued every 10 minutes, with the page automatically refreshed every 10 minutes)

About weather observations | Map of weather stations | Latest weather observations for NT | Other Formats
Station Details ID: 014508 Name: GOVE AIRPORT Lat: -12.27 Lon: 136.82 Height: 51.6 m
Data from the previous 72 hours. | See also: Recent months at Gove Airport
Date/Time
CST
Temp
°C
App
Temp
°C
Dew
Point
°C
Rel
Hum
%
Delta-T
°C
Wind Press
QNH
hPa
Press
MSL
hPa
Rain since
9am
mm
Dir  Spd
km/h
Gust
km/h
Spd
kts
Gust
kts
21/10:00am 30.3 31.5 21.4 59 6.0 N 17 24 9 13 1012.0 1011.6 0.0
21/09:30am 29.4 30.0 21.4 62 5.4 N 20 30 11 16 1012.1 1011.7 0.0
21/09:00am 30.2 31.9 22.4 63 5.3 N 17 24 9 13 1012.1 1011.7 0.0
21/08:30am 29.2 30.0 21.7 64 5.0 NNW 20 28 11 15 1011.9 1011.5 0.0
21/08:00am 28.2 29.7 22.0 69 4.2 N 17 22 9 12 1012.1 1011.7 0.0
21/07:30am 28.3 30.7 22.3 70 4.1 N 13 19 7 10 1011.9 1011.5 0.0
21/07:00am 27.2 30.5 22.6 76 3.1 N 9 11 5 6 1011.8 1011.4 0.0
21/06:30am 25.9 29.2 22.6 82 2.2 N 9 11 5 6 1011.4 1011.0 0.0
21/06:00am 24.9 28.6 22.6 87 1.6 N 7 9 4 5 1011.0 1010.6 0.0
21/05:30am 23.8 27.6 22.4 92 0.9 NNW 6 9 3 5 1010.6 1010.2 0.0
21/05:00am 23.1 27.5 21.4 90 1.1 CALM 0 0 0 0 1010.3 1009.9 0.0
21/04:30am 22.6 26.6 20.5 88 1.4 CALM 0 0 0 0 1010.0 1009.6 0.0
21/04:00am 22.9 27.1 21.0 89 1.2 CALM 0 0 0 0 1009.7 1009.3 0.0
21/03:30am 22.7 25.8 20.2 86 1.6 SW 4 7 2 4 1009.6 1009.2 0.0
21/03:00am 23.1 26.9 20.2 84 1.9 CALM 0 6 0 3 1009.3 1008.9 0.0
21/02:30am 24.0 27.6 22.1 89 1.3 N 6 9 3 5 1009.4 1009.0 0.0
21/02:00am 23.4 27.6 20.9 86 1.6 CALM 0 0 0 0 1009.4 1009.0 0.0
21/01:30am 23.4 27.5 20.7 85 1.8 CALM 0 0 0 0 1009.6 1009.2 0.0
21/01:00am 23.7 28.0 21.2 86 1.6 CALM 0 0 0 0 1009.6 1009.2 0.0
21/12:30am 23.8 28.1 21.1 85 1.8 CALM 0 0 0 0 1010.0 1009.6 0.0
21/12:00am 24.1 28.4 21.2 84 1.9 CALM 0 0 0 0 1010.3 1009.9 0.0
 
Date/Time
CST
Temp
°C
App
Temp
°C
Dew
Point
°C
Rel
Hum
%
Delta-T
°C
Wind Press
QNH
hPa
Press
MSL
hPa
Rain since
9am
mm
Dir  Spd
km/h
Gust
km/h
Spd
kts
Gust
kts
20/11:30pm 24.5 28.9 21.4 83 2.1 CALM 0 0 0 0 1010.6 1010.2 0.0
20/11:00pm 25.0 29.3 21.1 79 2.6 CALM 0 0 0 0 1010.9 1010.5 0.0
20/10:30pm 25.7 29.5 21.6 78 2.7 NE 4 7 2 4 1011.0 1010.6 0.0
20/10:00pm 25.9 30.0 21.6 77 2.9 NE 2 6 1 3 1010.9 1010.5 0.0
20/09:30pm 26.5 30.1 22.3 78 2.8 NNE 7 9 4 5 1010.8 1010.4 0.0
20/09:00pm 26.7 30.3 22.3 77 3.0 NNE 7 9 4 5 1010.6 1010.2 0.0
20/08:30pm 26.7 29.9 22.3 77 3.0 NNE 9 11 5 6 1010.3 1009.9 0.0
20/08:00pm 27.0 30.5 22.2 75 3.2 N 7 9 4 5 1010.0 1009.6 0.0
20/07:30pm 27.3 30.3 22.0 73 3.6 N 9 11 5 6 1009.8 1009.4 0.0
20/07:00pm 27.6 30.7 22.1 72 3.7 NNE 9 11 5 6 1009.5 1009.1 0.0
20/06:30pm 27.9 30.3 22.2 71 3.9 N 13 17 7 9 1009.1 1008.7 0.0
20/06:00pm 28.5 30.5 21.5 66 4.7 NNE 13 17 7 9 1008.9 1008.5 0.0
20/05:30pm 29.7 31.5 21.9 63 5.3 NNE 15 19 8 10 1008.9 1008.5 0.0
20/05:00pm 29.7 31.0 21.6 61 5.5 N 17 22 9 12 1008.8 1008.4 0.0
20/04:30pm 30.0 31.7 21.7 61 5.6 NNE 15 24 8 13 1008.7 1008.3 0.0
20/04:00pm 30.0 31.3 21.7 61 5.6 N 17 24 9 13 1008.7 1008.3 0.0
20/03:30pm 31.0 32.4 21.8 58 6.2 NNE 17 24 9 13 1008.8 1008.4 0.0
20/03:00pm 31.1 32.0 21.6 57 6.4 N 19 28 10 15 1008.8 1008.4 0.0
20/02:30pm 31.1 32.4 21.6 57 6.4 N 17 26 9 14 1009.0 1008.6 0.0
20/02:00pm 31.1 32.1 21.0 55 6.8 N 17 28 9 15 1009.2 1008.8 0.0
20/01:30pm 32.3 33.9 22.1 55 7.0 N 17 32 9 17 1009.6 1009.2 0.0
20/01:00pm 31.4 32.5 22.4 59 6.1 N 20 30 11 16 1010.0 1009.6 0.0
20/12:30pm 30.7 31.6 22.0 59 5.9 NNE 20 28 11 15 1010.0 1009.6 0.0
20/12:00pm 32.8 34.2 22.9 56 6.8 NNE 20 26 11 14 1010.1 1009.7 0.0
20/11:30am 31.5 32.5 22.2 57 6.3 NNE 20 32 11 17 1010.4 1010.0 0.0
20/11:00am 30.4 31.4 21.8 60 5.8 NNE 19 32 10 17 1010.6 1010.2 0.0
20/10:30am 30.7 31.8 22.0 59 5.9 NNE 19 28 10 15 1010.8 1010.4 0.0
20/10:00am 30.8 31.7 21.6 58 6.2 NNE 19 30 10 16 1010.7 1010.3 0.0
20/09:30am 30.4 31.5 22.0 60 5.7 NNE 19 30 10 16 1010.9 1010.5 0.0
20/09:00am 29.9 31.6 22.3 63 5.2 NE 17 24 9 13 1011.1 1010.7 0.0
20/08:30am 29.1 30.7 22.8 69 4.3 NE 19 24 10 13 1011.0 1010.6 0.0
20/08:00am 28.7 30.3 22.2 68 4.4 NNE 17 22 9 12 1010.7 1010.3 0.0
20/07:30am 28.2 31.4 23.1 74 3.5 NNE 11 15 6 8 1010.4 1010.0 0.0
20/07:00am 27.1 32.5 23.3 80 2.6 CALM 0 0 0 0 1010.0 1009.6 0.0
20/06:30am 24.3 28.8 21.6 85 1.8 CALM 0 6 0 3 1009.5 1009.1 0.0
20/06:00am 23.0 26.9 20.3 85 1.8 CALM 0 0 0 0 1009.4 1009.0 0.0
20/05:30am 22.9 26.7 20.1 84 1.8 CALM 0 0 0 0 1009.0 1008.6 0.0
20/05:00am 23.6 28.1 21.5 88 1.4 CALM 0 0 0 0 1008.8 1008.4 0.0
20/04:30am 23.5 27.8 21.2 87 1.5 CALM 0 0 0 0 1008.6 1008.2 0.0
20/04:00am 23.6 27.8 20.9 85 1.8 CALM 0 0 0 0 1008.7 1008.3 0.0
20/03:30am 23.5 27.5 20.6 84 1.9 CALM 0 0 0 0 1008.6 1008.2 0.0
20/03:00am 23.9 28.5 21.8 88 1.4 CALM 0 0 0 0 1008.6 1008.2 0.0
20/02:30am 23.8 28.3 21.5 87 1.5 CALM 0 0 0 0 1008.8 1008.4 0.0
20/02:00am 24.0 28.8 22.1 89 1.3 CALM 0 0 0 0 1009.1 1008.7 0.0
20/01:30am 23.9 28.5 21.8 88 1.4 CALM 0 0 0 0 1009.4 1009.0 0.0
20/01:00am 24.2 28.9 21.9 87 1.5 CALM 0 0 0 0 1009.6 1009.2 0.0
20/12:30am 24.5 29.3 22.2 87 1.5 CALM 0 0 0 0 1010.1 1009.7 0.0
20/12:00am 24.6 29.2 21.7 84 1.9 CALM 0 0 0 0 1010.4 1010.0 0.0
 
Date/Time
CST
Temp
°C
App
Temp
°C
Dew
Point
°C
Rel
Hum
%
Delta-T
°C
Wind Press
QNH
hPa
Press
MSL
hPa
Rain since
9am
mm
Dir  Spd
km/h
Gust
km/h
Spd
kts
Gust
kts
19/11:30pm 25.0 29.9 22.3 85 1.8 CALM 0 0 0 0 1010.8 1010.4 0.0
19/11:00pm 25.2 29.9 21.9 82 2.2 CALM 0 0 0 0 1011.1 1010.7 0.0
19/10:30pm 26.2 30.3 22.3 79 2.6 SE 4 6 2 3 1011.3 1010.9 0.0
19/10:00pm 26.7 30.9 22.5 78 2.8 NE 4 7 2 4 1011.2 1010.8 0.0
19/09:30pm 26.9 30.7 22.7 78 2.8 E 7 9 4 5 1011.2 1010.8 0.0
19/09:00pm 27.2 31.0 22.8 77 3.0 NE 7 11 4 6 1011.0 1010.6 0.0
19/08:30pm 27.3 31.1 22.7 76 3.1 NE 7 9 4 5 1010.8 1010.4 0.0
19/08:00pm 27.6 31.2 23.0 76 3.1 ENE 9 13 5 7 1010.7 1010.3 0.0
19/07:30pm 27.8 31.0 23.0 75 3.3 E 11 15 6 8 1010.2 1009.8 0.0
19/07:00pm 28.1 31.2 22.8 73 3.6 E 11 13 6 7 1010.0 1009.6 0.0
19/06:30pm 28.5 30.8 22.7 71 4.0 ENE 15 22 8 12 1009.6 1009.2 0.0
19/06:00pm 29.1 31.0 22.8 69 4.3 E 17 20 9 11 1009.2 1008.8 0.0
19/05:30pm 29.6 31.0 22.6 66 4.8 ENE 19 24 10 13 1009.1 1008.7 0.0
19/05:00pm 30.3 31.8 22.7 64 5.2 ENE 19 28 10 15 1008.8 1008.4 0.0
19/04:30pm 30.7 32.0 22.6 62 5.5 ENE 20 24 11 13 1008.6 1008.2 0.0
19/04:00pm 30.7 31.8 22.3 61 5.7 ENE 20 28 11 15 1008.5 1008.1 0.0
19/03:30pm 31.6 33.2 22.9 60 6.0 ENE 19 26 10 14 1008.6 1008.2 0.0
19/03:00pm 31.6 33.5 22.0 56 6.5 NE 15 22 8 12 1008.6 1008.2 0.0
19/02:30pm 31.4 32.6 22.1 57 6.3 NE 19 24 10 13 1008.7 1008.3 0.0
19/02:00pm 32.1 33.3 22.5 57 6.6 ENE 20 30 11 16 1008.9 1008.5 0.0
19/01:30pm 32.8 35.3 23.2 57 6.7 ENE 15 24 8 13 1008.9 1008.5 0.0
19/01:00pm 32.7 35.3 23.3 57 6.5 NE 15 26 8 14 1009.2 1008.8 0.0
19/12:30pm 31.1 32.4 22.4 60 5.9 NE 19 28 10 15 1009.6 1009.2 0.0
19/12:00pm 31.3 32.9 22.9 61 5.8 ENE 19 32 10 17 1010.2 1009.8 0.0
19/11:30am 31.4 32.9 23.0 61 5.8 ENE 20 26 11 14 1010.7 1010.3 0.0
19/11:00am 31.1 31.8 21.6 57 6.4 NE 20 26 11 14 1011.0 1010.6 0.0
19/10:30am 31.5 31.4 20.8 53 7.2 ENE 22 30 12 16 1011.1 1010.7 0.0
19/10:00am 31.4 32.0 21.0 54 7.0 NE 19 26 10 14 1011.1 1010.7 0.0
19/09:30am 31.8 31.8 20.1 50 7.8 ENE 20 30 11 16 1011.1 1010.7 0.0
19/09:00am 31.2 31.3 19.2 48 7.9 ENE 17 24 9 13 1011.1 1010.7 0.0
19/08:30am 30.7 31.9 20.6 54 6.7 NE 15 20 8 11 1011.1 1010.7 0.0
19/08:00am 29.0 31.8 23.0 70 4.1 NE 13 15 7 8 1011.0 1010.6 0.0
19/07:30am 28.3 32.8 23.9 77 3.0 ENE 7 9 4 5 1010.5 1010.1 0.0
19/07:00am 26.9 32.1 23.6 82 2.3 ENE 2 7 1 4 1010.2 1009.8 0.0
19/06:30am 23.7 28.2 21.6 88 1.4 CALM 0 0 0 0 1009.8 1009.4 0.0
19/06:00am 22.9 27.2 21.2 90 1.1 CALM 0 0 0 0 1009.3 1008.9 0.0
19/05:30am 22.9 26.8 20.4 86 1.6 CALM 0 0 0 0 1009.2 1008.8 0.0
19/05:00am 22.8 26.5 20.0 84 1.8 CALM 0 0 0 0 1009.2 1008.8 0.0
19/04:30am 23.9 28.8 22.3 91 1.1 CALM 0 0 0 0 1009.0 1008.6 0.0
19/04:00am 24.2 29.3 22.6 91 1.1 CALM 0 0 0 0 1009.1 1008.7 0.0
19/03:30am 24.1 29.0 22.4 90 1.1 CALM 0 0 0 0 1009.1 1008.7 0.0
19/03:00am 24.1 28.9 22.2 89 1.3 CALM 0 0 0 0 1009.1 1008.7 0.0
19/02:30am 24.0 28.7 21.9 88 1.4 CALM 0 0 0 0 1009.4 1009.0 0.0
19/02:00am 24.3 28.8 21.6 85 1.8 CALM 0 0 0 0 1009.5 1009.1 0.0
19/01:30am 24.7 29.8 22.6 88 1.4 CALM 0 0 0 0 1009.6 1009.2 0.0
19/01:00am 24.8 29.7 22.3 86 1.7 CALM 0 0 0 0 1009.9 1009.5 0.0
19/12:30am 25.2 30.3 22.7 86 1.7 CALM 0 0 0 0 1010.4 1010.0 0.0
19/12:00am 25.7 30.9 22.8 84 2.0 CALM 0 0 0 0 1010.8 1010.4 0.0
 
Date/Time
CST
Temp
°C
App
Temp
°C
Dew
Point
°C
Rel
Hum
%
Delta-T
°C
Wind Press
QNH
hPa
Press
MSL
hPa
Rain since
9am
mm
Dir  Spd
km/h
Gust
km/h
Spd
kts
Gust
kts
18/11:30pm 26.2 31.5 23.1 83 2.1 CALM 0 6 0 3 1011.4 1011.0 0.0
18/11:00pm 26.8 31.0 23.5 82 2.3 NNE 7 9 4 5 1011.7 1011.3 0.0
18/10:30pm 27.0 31.1 23.0 79 2.7 NE 6 7 3 4 1011.9 1011.5 0.0
18/10:00pm 27.4 31.9 23.6 80 2.6 ENE 6 7 3 4 1012.0 1011.6 0.0
18/09:30pm 27.5 31.9 23.5 79 2.7 NE 6 7 3 4 1011.9 1011.5 0.0
18/09:00pm 27.7 32.0 23.7 79 2.8 NE 7 9 4 5 1011.7 1011.3 0.0
18/08:30pm 27.7 31.5 23.5 78 2.9 NNE 9 11 5 6 1011.6 1011.2 0.0
18/08:00pm 27.9 32.0 23.3 76 3.2 ENE 7 11 4 6 1011.5 1011.1 0.0
18/07:30pm 28.0 31.8 23.4 76 3.2 ENE 9 11 5 6 1010.9 1010.5 0.0
18/07:00pm 28.2 31.6 23.3 75 3.4 ENE 11 13 6 7 1010.5 1010.1 0.0
18/06:30pm 28.6 31.6 23.3 73 3.6 E 13 17 7 9 1010.3 1009.9 0.0
18/06:00pm 29.2 31.2 22.9 69 4.3 E 17 20 9 11 1010.2 1009.8 0.0
18/05:30pm 30.1 32.0 22.8 65 5.0 E 17 22 9 12 1009.9 1009.5 0.0
18/05:00pm 30.8 32.5 22.4 61 5.7 ENE 17 22 9 12 1009.7 1009.3 0.0
18/04:30pm 30.9 32.8 22.8 62 5.6 ENE 17 22 9 12 1009.6 1009.2 0.0
18/04:00pm 30.8 32.4 22.1 59 5.9 NE 17 24 9 13 1009.5 1009.1 0.0
18/03:30pm 31.5 32.9 22.5 59 6.2 ENE 19 28 10 15 1009.5 1009.1 0.0
18/03:00pm 31.5 32.4 21.9 56 6.5 ENE 20 28 11 15 1009.7 1009.3 0.0
18/02:30pm 31.8 33.0 22.5 58 6.4 NE 20 28 11 15 1009.9 1009.5 0.0
18/02:00pm 31.4 32.8 21.8 56 6.5 ENE 17 26 9 14 1010.3 1009.9 0.0
18/01:30pm 32.7 34.8 23.1 57 6.6 NNE 17 26 9 14 1010.3 1009.9 0.0
18/01:00pm 31.9 33.7 22.6 58 6.4 NE 17 24 9 13 1010.9 1010.5 0.0
18/12:30pm 32.1 33.7 22.2 56 6.8 NE 17 26 9 14 1011.4 1011.0 0.0
18/12:00pm 32.4 33.0 21.0 51 7.7 ENE 19 28 10 15 1011.6 1011.2 0.0
18/11:30am 32.7 34.5 21.9 53 7.4 NE 15 22 8 12 1011.8 1011.4 0.0
18/11:00am 31.9 33.5 21.4 53 7.1 NE 15 24 8 13 1011.9 1011.5 0.0

Other formats

Comma delimited format used in spreadsheet applications
http://www.bom.gov.au/fwo/IDD60801/IDD60801.94150.axf

JavaScript Object Notation format (JSON) in row-major order
http://www.bom.gov.au/fwo/IDD60801/IDD60801.94150.json

Data quality

Most of these data are generated automatically and are frequently updated. Quality checks on data are not normally performed. It is possible for incorrect values to appear. Refer to information at About Latest Weather Observations and please check the disclaimer before using these data.